createdAt,value
2019-01-09T00:01:13.030Z,99.90
2019-01-09T00:03:18.362Z,99.90
2019-01-09T00:05:28.471Z,99.90
2019-01-09T00:07:32.211Z,99.90
2019-01-09T00:09:38.813Z,99.90
2019-01-09T00:11:48.667Z,99.90
2019-01-09T00:13:53.585Z,99.90
2019-01-09T00:15:59.155Z,99.90
2019-01-09T00:18:04.102Z,99.90
2019-01-09T00:20:09.227Z,99.90
2019-01-09T00:22:17.600Z,99.90
2019-01-09T00:24:22.265Z,99.90
2019-01-09T00:26:26.768Z,99.90
2019-01-09T00:28:37.948Z,99.90
2019-01-09T00:30:42.465Z,99.90
2019-01-09T00:32:50.915Z,99.90
2019-01-09T00:34:55.628Z,99.90
2019-01-09T00:37:02.277Z,99.90
2019-01-09T00:39:07.685Z,99.90
2019-01-09T00:41:14.089Z,99.90
2019-01-09T00:43:18.615Z,99.90
2019-01-09T00:45:23.370Z,99.90
2019-01-09T00:47:28.257Z,99.90
2019-01-09T00:49:34.488Z,99.90
2019-01-09T00:51:39.288Z,99.90
2019-01-09T00:53:43.698Z,99.90
2019-01-09T00:55:48.793Z,99.90
2019-01-09T00:57:53.359Z,99.90
2019-01-09T01:00:01.717Z,99.90
2019-01-09T01:02:32.272Z,99.90
2019-01-09T01:05:08.347Z,99.90
2019-01-09T01:07:39.992Z,99.90
2019-01-09T01:10:31.515Z,99.90
2019-01-09T01:13:11.435Z,99.90
2019-01-09T01:15:58.175Z,99.90
2019-01-09T01:18:29.323Z,99.90
2019-01-09T01:21:04.737Z,99.90
2019-01-09T01:23:55.185Z,99.90
2019-01-09T01:26:30.938Z,99.90
2019-01-09T01:29:16.388Z,99.90
2019-01-09T01:32:07.557Z,99.90
2019-01-09T01:34:38.418Z,99.90
2019-01-09T01:37:29.783Z,99.90
2019-01-09T01:40:12.119Z,99.90
2019-01-09T01:42:56.901Z,99.90
2019-01-09T01:45:24.859Z,99.90
2019-01-09T01:48:04.953Z,99.90
2019-01-09T01:50:46.924Z,99.90
2019-01-09T01:53:41.438Z,99.90
2019-01-09T01:56:07.323Z,99.90
2019-01-09T01:58:42.163Z,99.90
2019-01-09T02:01:24.027Z,99.90
2019-01-09T02:03:54.233Z,99.90
2019-01-09T02:06:09.208Z,99.90
2019-01-09T02:08:52.945Z,99.90
2019-01-09T02:11:40.714Z,99.90
2019-01-09T02:14:14.034Z,99.90
2019-01-09T02:17:00.572Z,99.90
2019-01-09T02:19:33.956Z,99.90
2019-01-09T02:22:15.897Z,99.90
2019-01-09T02:25:17.930Z,99.90
2019-01-09T02:27:59.276Z,99.90
2019-01-09T02:30:39.823Z,99.90
2019-01-09T02:32:44.596Z,99.90
2019-01-09T02:34:50.075Z,99.90
2019-01-09T02:36:56.164Z,99.90
2019-01-09T02:39:00.672Z,99.90
2019-01-09T02:41:06.102Z,99.90
2019-01-09T02:43:10.867Z,99.90
2019-01-09T02:45:16.811Z,99.90
2019-01-09T02:47:33.907Z,99.90
2019-01-09T02:49:38.716Z,99.90
2019-01-09T02:51:43.863Z,99.90
2019-01-09T02:53:48.593Z,99.90
2019-01-09T02:55:53.035Z,99.90
2019-01-09T02:58:00.080Z,99.90
2019-01-09T03:00:13.365Z,99.90
2019-01-09T03:02:19.565Z,99.90
2019-01-09T03:04:26.782Z,99.90
2019-01-09T03:06:35.676Z,99.90
2019-01-09T03:08:40.130Z,99.90
2019-01-09T03:10:44.600Z,99.90
2019-01-09T03:12:49.155Z,99.90
2019-01-09T03:14:54.688Z,99.90
2019-01-09T03:16:59.129Z,99.90
2019-01-09T03:19:03.767Z,99.90
2019-01-09T03:21:08.814Z,99.90
2019-01-09T03:23:13.711Z,99.90
2019-01-09T03:25:18.743Z,99.90
2019-01-09T03:27:23.373Z,99.90
2019-01-09T03:29:27.919Z,99.90
2019-01-09T03:31:33.277Z,99.90
2019-01-09T03:33:37.926Z,99.90
2019-01-09T03:35:43.046Z,99.90
2019-01-09T03:37:48.572Z,99.90
2019-01-09T03:39:54.036Z,99.90
2019-01-09T03:42:02.822Z,99.90
2019-01-09T03:44:07.435Z,99.90
2019-01-09T03:46:12.471Z,99.90
2019-01-09T03:48:17.344Z,99.90
2019-01-09T03:50:22.359Z,99.90
2019-01-09T03:52:27.794Z,99.90
2019-01-09T03:54:33.342Z,99.90
2019-01-09T03:56:40.834Z,99.90
2019-01-09T03:58:45.477Z,99.90
2019-01-09T04:00:50.731Z,99.90
2019-01-09T04:02:55.536Z,99.90
2019-01-09T04:05:00.578Z,99.90
2019-01-09T04:07:06.670Z,99.90
2019-01-09T04:09:11.167Z,99.90
2019-01-09T04:11:16.898Z,99.90
2019-01-09T04:13:25.601Z,99.90
2019-01-09T04:15:32.080Z,99.90
2019-01-09T04:17:37.038Z,99.90
2019-01-09T04:20:33.278Z,99.90
2019-01-09T04:22:37.665Z,99.90
2019-01-09T04:24:43.061Z,99.90
2019-01-09T04:26:47.518Z,99.90
2019-01-09T04:28:53.692Z,99.90
2019-01-09T04:30:58.201Z,99.90
2019-01-09T04:33:02.603Z,99.90
2019-01-09T04:35:07.945Z,99.90
2019-01-09T04:37:12.599Z,99.90
2019-01-09T04:39:17.471Z,99.90
2019-01-09T04:41:22.718Z,99.90
2019-01-09T04:43:31.186Z,99.90
2019-01-09T04:45:36.265Z,99.90
2019-01-09T04:47:43.917Z,99.90
2019-01-09T04:49:49.009Z,99.90
2019-01-09T04:51:55.863Z,99.90
2019-01-09T04:54:00.431Z,99.90
2019-01-09T04:56:07.420Z,99.90
2019-01-09T04:58:11.885Z,99.90
2019-01-09T05:00:16.283Z,99.90
2019-01-09T05:02:23.011Z,99.90
2019-01-09T05:04:27.857Z,99.90
2019-01-09T05:06:35.945Z,99.90
2019-01-09T05:08:50.316Z,99.90
2019-01-09T05:10:58.347Z,99.90
2019-01-09T05:13:03.168Z,99.90
2019-01-09T05:15:10.748Z,99.90
2019-01-09T05:17:15.533Z,99.90
2019-01-09T05:19:22.753Z,99.90
2019-01-09T05:21:27.836Z,99.90
2019-01-09T05:23:35.648Z,99.90
2019-01-09T05:25:40.179Z,99.90
2019-01-09T05:27:46.100Z,99.90
2019-01-09T05:29:53.317Z,99.90
2019-01-09T05:31:59.028Z,99.90
2019-01-09T05:34:03.891Z,99.90
2019-01-09T05:36:09.656Z,99.90
2019-01-09T05:38:15.402Z,99.90
2019-01-09T05:40:23.144Z,99.90
2019-01-09T05:42:31.343Z,99.90
2019-01-09T05:44:36.861Z,99.90
2019-01-09T05:46:41.559Z,99.90
2019-01-09T05:48:49.340Z,99.90
2019-01-09T05:50:58.514Z,99.90
2019-01-09T05:53:18.585Z,99.90
2019-01-09T05:55:26.022Z,99.90
2019-01-09T05:57:31.893Z,99.90
2019-01-09T05:59:36.726Z,99.90
2019-01-09T06:01:41.251Z,99.90
2019-01-09T06:03:46.177Z,99.90
2019-01-09T06:05:51.435Z,99.90
2019-01-09T06:07:56.651Z,99.90
2019-01-09T06:10:06.296Z,99.90
2019-01-09T06:12:10.718Z,99.90
2019-01-09T06:14:18.924Z,99.90
2019-01-09T06:16:23.556Z,99.90
2019-01-09T06:18:28.064Z,99.90
2019-01-09T06:20:40.028Z,99.90
2019-01-09T06:22:44.666Z,99.90
2019-01-09T06:24:53.732Z,99.90
2019-01-09T06:26:58.363Z,99.90
2019-01-09T06:29:04.826Z,99.90
2019-01-09T06:31:10.740Z,99.90
2019-01-09T06:33:15.901Z,99.90
2019-01-09T06:35:21.340Z,99.90
2019-01-09T06:37:27.530Z,99.90
2019-01-09T06:39:32.924Z,99.90
2019-01-09T06:41:37.460Z,99.90
2019-01-09T06:43:43.483Z,99.90
2019-01-09T06:45:48.952Z,99.90
2019-01-09T06:47:54.171Z,99.90
2019-01-09T06:49:59.312Z,99.90
2019-01-09T06:52:03.812Z,99.90
2019-01-09T06:54:08.920Z,99.90
2019-01-09T06:56:13.809Z,99.90
2019-01-09T06:58:20.136Z,99.90
2019-01-09T07:00:24.529Z,99.90
2019-01-09T07:02:29.317Z,99.90
2019-01-09T07:04:33.976Z,99.90
2019-01-09T07:06:39.272Z,99.90
2019-01-09T07:08:44.017Z,99.90
2019-01-09T07:10:48.561Z,99.90
2019-01-09T07:12:53.077Z,99.90
2019-01-09T07:14:59.036Z,99.90
2019-01-09T07:17:03.603Z,99.90
2019-01-09T07:19:08.442Z,99.90
2019-01-09T07:21:15.360Z,99.90
2019-01-09T07:23:20.092Z,99.90
2019-01-09T07:25:25.379Z,99.90
2019-01-09T07:27:30.403Z,99.90
2019-01-09T07:29:35.520Z,99.90
2019-01-09T07:31:44.452Z,99.90
2019-01-09T07:33:48.892Z,99.90
2019-01-09T07:35:55.735Z,99.90
2019-01-09T07:38:00.508Z,99.90
2019-01-09T07:40:07.605Z,99.90
2019-01-09T07:42:14.841Z,99.90
2019-01-09T07:44:20.123Z,99.90
2019-01-09T07:46:27.110Z,99.90
2019-01-09T07:48:32.811Z,99.90
2019-01-09T07:50:37.813Z,99.90
2019-01-09T07:52:44.459Z,99.90
2019-01-09T07:54:51.401Z,99.90
2019-01-09T07:56:57.228Z,99.90
2019-01-09T07:59:02.340Z,99.90
2019-01-09T08:01:07.180Z,99.90
2019-01-09T08:03:12.355Z,99.90
2019-01-09T08:05:18.026Z,99.90
2019-01-09T08:07:25.167Z,99.90
2019-01-09T08:09:29.924Z,99.90
2019-01-09T08:11:34.722Z,99.90
2019-01-09T08:13:39.897Z,99.90
2019-01-09T08:15:44.461Z,99.90
2019-01-09T08:17:49.773Z,99.90
2019-01-09T08:19:55.174Z,99.90
2019-01-09T08:22:02.683Z,99.90
2019-01-09T08:24:08.511Z,99.90
2019-01-09T08:26:15.349Z,99.90
2019-01-09T08:28:25.736Z,99.90
2019-01-09T08:30:31.033Z,99.90
2019-01-09T08:32:35.576Z,99.90
2019-01-09T08:34:45.332Z,99.90
2019-01-09T08:36:52.970Z,99.90
2019-01-09T08:39:00.789Z,99.90
2019-01-09T08:41:05.661Z,99.90
2019-01-09T08:43:10.969Z,99.90
2019-01-09T08:45:16.009Z,99.90
2019-01-09T08:47:20.588Z,99.90
2019-01-09T08:49:30.517Z,99.90
2019-01-09T08:51:35.760Z,99.90
2019-01-09T08:53:40.498Z,99.90
2019-01-09T08:55:45.396Z,99.90
2019-01-09T08:57:50.491Z,99.90
2019-01-09T08:59:55.736Z,99.90
2019-01-09T09:02:01.865Z,99.90
2019-01-09T09:04:06.609Z,99.90
2019-01-09T09:06:14.653Z,99.90
2019-01-09T09:08:21.253Z,99.90
2019-01-09T09:10:26.392Z,99.90
2019-01-09T09:12:32.150Z,99.90
2019-01-09T09:14:38.256Z,99.90
2019-01-09T09:16:42.892Z,99.90
2019-01-09T09:18:47.839Z,99.90
2019-01-09T09:21:01.879Z,99.90
2019-01-09T09:23:11.961Z,99.90
2019-01-09T09:25:20.128Z,99.90
2019-01-09T09:27:28.039Z,99.90
2019-01-09T09:29:33.123Z,99.90
2019-01-09T09:31:39.449Z,99.90
2019-01-09T09:33:46.698Z,99.90
2019-01-09T09:35:53.536Z,99.90
2019-01-09T09:38:01.063Z,99.90
2019-01-09T09:40:13.300Z,99.90
2019-01-09T09:42:21.881Z,99.90
2019-01-09T09:44:27.992Z,99.90
2019-01-09T09:46:32.737Z,99.90
2019-01-09T09:48:37.436Z,99.90
2019-01-09T09:50:54.086Z,99.90
2019-01-09T09:52:59.047Z,99.90
2019-01-09T09:55:12.648Z,99.90
2019-01-09T09:57:13.405Z,99.90
2019-01-09T09:59:21.933Z,99.90
2019-01-09T10:01:34.082Z,99.90
2019-01-09T10:03:38.996Z,99.90
2019-01-09T10:05:45.234Z,99.90
2019-01-09T10:07:50.591Z,99.90
2019-01-09T10:09:55.202Z,99.90
2019-01-09T10:12:02.866Z,99.90
2019-01-09T10:14:07.459Z,99.90
2019-01-09T10:16:12.982Z,99.90
2019-01-09T10:18:22.199Z,99.90
2019-01-09T10:20:26.891Z,99.90
2019-01-09T10:22:32.217Z,99.90
2019-01-09T10:24:39.411Z,99.90
2019-01-09T10:26:50.181Z,99.90
2019-01-09T10:28:56.496Z,99.90
2019-01-09T10:31:02.182Z,99.90
2019-01-09T10:33:06.919Z,99.90
2019-01-09T10:35:11.606Z,99.90
2019-01-09T10:37:17.003Z,99.90
2019-01-09T10:39:31.661Z,99.90
2019-01-09T10:41:36.834Z,99.90
2019-01-09T10:43:41.794Z,99.90
2019-01-09T10:45:47.189Z,99.90
2019-01-09T10:47:52.743Z,99.90
2019-01-09T10:49:58.495Z,99.90
2019-01-09T10:52:04.328Z,99.90
2019-01-09T10:54:10.157Z,99.90
2019-01-09T10:56:18.430Z,99.90
2019-01-09T10:58:23.099Z,99.90
2019-01-09T11:00:28.132Z,99.90
2019-01-09T11:02:33.813Z,99.90
2019-01-09T11:04:41.052Z,99.90
2019-01-09T11:06:49.749Z,99.90
2019-01-09T11:08:54.815Z,99.90
2019-01-09T11:11:02.731Z,99.90
2019-01-09T11:13:07.871Z,99.90
2019-01-09T11:15:13.580Z,99.90
2019-01-09T11:17:26.144Z,99.90
2019-01-09T11:19:32.135Z,99.90
2019-01-09T11:21:36.771Z,99.90
2019-01-09T11:23:42.329Z,99.90
2019-01-09T11:25:51.256Z,99.90
2019-01-09T11:27:56.822Z,99.90
2019-01-09T11:30:05.503Z,99.90
2019-01-09T11:32:11.413Z,99.90
2019-01-09T11:34:18.157Z,99.90
2019-01-09T11:36:23.165Z,99.90
2019-01-09T11:38:29.024Z,99.90
2019-01-09T11:40:37.837Z,99.90
2019-01-09T11:42:43.146Z,99.90
2019-01-09T11:44:51.971Z,99.90
2019-01-09T11:46:59.161Z,99.90
2019-01-09T11:49:05.656Z,99.90
2019-01-09T11:51:11.434Z,99.90
2019-01-09T11:53:16.953Z,99.90
2019-01-09T11:55:21.436Z,99.90
2019-01-09T11:57:26.427Z,99.90
2019-01-09T11:59:32.949Z,99.90
2019-01-09T12:01:37.716Z,99.90
2019-01-09T12:03:44.783Z,99.90
2019-01-09T12:05:50.074Z,99.90
2019-01-09T12:07:57.901Z,99.90
2019-01-09T12:10:05.481Z,99.90
2019-01-09T12:12:10.389Z,99.90
2019-01-09T12:14:19.179Z,99.90
2019-01-09T12:16:28.028Z,99.90
2019-01-09T12:18:33.383Z,99.90
2019-01-09T12:20:37.959Z,99.90
2019-01-09T12:22:43.973Z,99.90
2019-01-09T12:24:52.347Z,99.90
2019-01-09T12:26:59.408Z,99.90
2019-01-09T12:29:09.110Z,99.90
2019-01-09T12:31:14.214Z,99.90
2019-01-09T12:33:19.158Z,99.90
2019-01-09T12:35:24.465Z,99.90
2019-01-09T12:37:32.791Z,99.90
2019-01-09T12:39:37.732Z,99.90
2019-01-09T12:41:42.651Z,99.90
2019-01-09T12:43:47.499Z,99.90
2019-01-09T12:45:54.427Z,99.90
2019-01-09T12:47:59.950Z,99.90
2019-01-09T12:50:06.933Z,99.90
2019-01-09T12:52:12.386Z,99.90
2019-01-09T12:54:18.760Z,99.90
2019-01-09T12:56:28.072Z,99.90
2019-01-09T12:58:32.991Z,99.90
2019-01-09T13:00:37.657Z,99.90
2019-01-09T13:02:42.396Z,99.90
2019-01-09T13:04:46.912Z,99.90
2019-01-09T13:06:51.913Z,99.90
2019-01-09T13:08:58.140Z,99.90
2019-01-09T13:11:03.802Z,99.90
2019-01-09T13:13:10.373Z,99.90
2019-01-09T13:15:15.033Z,99.90
2019-01-09T13:17:22.334Z,99.90
2019-01-09T13:19:26.936Z,99.90
2019-01-09T13:21:32.979Z,99.90
2019-01-09T13:23:37.494Z,99.90
2019-01-09T13:25:45.400Z,99.90
2019-01-09T13:27:53.396Z,99.90
2019-01-09T13:29:57.937Z,99.90
2019-01-09T13:32:03.591Z,99.90
2019-01-09T13:34:09.204Z,99.90
2019-01-09T13:36:13.703Z,99.90
2019-01-09T13:38:18.194Z,99.90
2019-01-09T13:40:23.314Z,99.90
2019-01-09T13:42:29.889Z,99.90
2019-01-09T13:44:34.746Z,99.90
2019-01-09T13:46:39.466Z,99.90
2019-01-09T13:48:44.080Z,99.90
2019-01-09T13:50:54.272Z,99.90
2019-01-09T13:52:59.240Z,99.90
2019-01-09T13:55:07.104Z,99.90
2019-01-09T13:57:12.055Z,99.90
2019-01-09T13:59:17.860Z,99.90
2019-01-09T14:01:24.816Z,99.90
2019-01-09T14:03:30.745Z,99.90
2019-01-09T14:05:35.671Z,99.90
2019-01-09T14:07:40.470Z,99.90
2019-01-09T14:09:46.649Z,99.90
2019-01-09T14:11:51.363Z,99.90
2019-01-09T14:13:56.008Z,99.90
2019-01-09T14:16:00.472Z,99.40
2019-01-09T14:18:23.973Z,99.20
2019-01-09T14:20:34.488Z,99.40
2019-01-09T14:22:42.971Z,99.00
2019-01-09T14:24:48.018Z,99.30
2019-01-09T14:26:53.441Z,99.40
2019-01-09T14:28:59.280Z,99.90
2019-01-09T14:31:06.615Z,99.90
2019-01-09T14:33:17.965Z,99.90
2019-01-09T14:35:24.282Z,99.90
2019-01-09T14:37:29.216Z,99.90
2019-01-09T14:39:35.420Z,99.90
2019-01-09T14:41:41.418Z,99.90
2019-01-09T14:43:46.669Z,99.90
2019-01-09T14:45:54.114Z,99.70
2019-01-09T14:48:00.235Z,98.40
2019-01-09T14:50:10.743Z,98.30
2019-01-09T14:52:21.462Z,98.20
2019-01-09T14:54:28.344Z,98.70
2019-01-09T14:56:35.487Z,99.10
2019-01-09T14:58:49.691Z,99.30
2019-01-09T15:00:55.605Z,99.30
2019-01-09T15:03:00.874Z,99.60
2019-01-09T15:05:08.939Z,99.90
2019-01-09T15:07:18.974Z,99.90
2019-01-09T15:09:32.270Z,99.90
2019-01-09T15:11:38.054Z,99.90
2019-01-09T15:13:44.344Z,99.90
2019-01-09T15:15:49.119Z,99.90
2019-01-09T15:17:54.429Z,99.90
2019-01-09T15:20:02.330Z,99.80
2019-01-09T15:22:08.911Z,99.70
2019-01-09T15:24:14.024Z,99.40
2019-01-09T15:26:21.954Z,99.60
2019-01-09T15:28:27.123Z,99.90
2019-01-09T15:30:34.987Z,99.90
2019-01-09T15:32:43.010Z,99.70
2019-01-09T15:34:51.767Z,99.90
2019-01-09T15:36:57.055Z,99.90
2019-01-09T15:39:05.652Z,99.90
2019-01-09T15:41:10.965Z,99.90
2019-01-09T15:43:22.516Z,99.90
2019-01-09T15:45:28.115Z,99.90
2019-01-09T15:47:33.511Z,99.90
2019-01-09T15:49:42.763Z,99.90
2019-01-09T15:51:51.333Z,99.90
2019-01-09T15:53:59.909Z,99.90
2019-01-09T15:56:04.838Z,99.90
2019-01-09T15:58:14.086Z,99.90
2019-01-09T16:00:25.724Z,99.90
2019-01-09T16:02:30.667Z,99.90
2019-01-09T16:04:35.094Z,99.90
2019-01-09T16:06:42.830Z,99.90
2019-01-09T16:08:49.918Z,99.90
2019-01-09T16:11:08.113Z,99.90
2019-01-09T16:13:14.443Z,99.90
2019-01-09T16:15:29.534Z,99.90
2019-01-09T16:17:34.545Z,99.90
2019-01-09T16:19:41.630Z,99.90
2019-01-09T16:21:47.147Z,99.90
2019-01-09T16:23:54.200Z,99.90
2019-01-09T16:26:03.420Z,99.90
2019-01-09T16:28:11.622Z,99.90
2019-01-09T16:30:56.971Z,99.90
2019-01-09T16:33:02.362Z,99.90
2019-01-09T16:35:20.756Z,99.90
2019-01-09T16:37:49.194Z,99.90
2019-01-09T16:39:57.703Z,99.90
2019-01-09T16:42:04.987Z,99.90
2019-01-09T16:44:10.569Z,99.90
2019-01-09T16:46:22.426Z,99.90
2019-01-09T16:48:29.754Z,99.90
2019-01-09T16:50:34.687Z,99.90
2019-01-09T16:52:40.149Z,99.90
2019-01-09T16:54:46.825Z,99.90
2019-01-09T16:56:52.143Z,99.90
2019-01-09T16:58:57.679Z,99.90
2019-01-09T17:01:05.898Z,99.90
2019-01-09T17:03:12.128Z,99.90
2019-01-09T17:05:18.163Z,99.90
2019-01-09T17:07:23.493Z,99.90
2019-01-09T17:09:31.007Z,99.90
2019-01-09T17:11:35.986Z,99.90
2019-01-09T17:13:41.110Z,99.90
2019-01-09T17:15:48.639Z,99.90
2019-01-09T17:17:56.362Z,99.90
2019-01-09T17:20:02.555Z,99.90
2019-01-09T17:22:07.381Z,99.90
2019-01-09T17:24:12.730Z,99.90
2019-01-09T17:26:17.678Z,99.90
2019-01-09T17:28:22.153Z,99.90
2019-01-09T17:30:27.748Z,99.90
2019-01-09T17:32:32.248Z,99.90
2019-01-09T17:34:37.262Z,99.90
2019-01-09T17:36:46.648Z,99.90
2019-01-09T17:38:51.291Z,99.90
2019-01-09T17:40:56.107Z,99.90
2019-01-09T17:43:01.200Z,99.90
2019-01-09T17:45:08.128Z,99.90
2019-01-09T17:47:12.661Z,99.90
2019-01-09T17:49:19.458Z,99.90
2019-01-09T17:51:24.406Z,99.90
2019-01-09T17:53:28.942Z,99.90
2019-01-09T17:55:34.997Z,99.90
2019-01-09T17:57:41.966Z,99.90
2019-01-09T17:59:51.862Z,99.90
2019-01-09T18:02:05.387Z,99.90
2019-01-09T18:04:16.865Z,99.90
2019-01-09T18:06:25.235Z,99.90
2019-01-09T18:08:38.334Z,99.90
2019-01-09T18:10:54.469Z,99.90
2019-01-09T18:13:02.020Z,99.90
2019-01-09T18:15:09.861Z,99.90
2019-01-09T18:17:15.936Z,99.90
2019-01-09T18:19:25.698Z,99.90
2019-01-09T18:21:40.922Z,99.90
2019-01-09T18:23:47.866Z,99.90
2019-01-09T18:25:53.430Z,99.90
2019-01-09T18:28:04.078Z,99.90
2019-01-09T18:30:53.045Z,99.90
2019-01-09T18:33:13.191Z,99.90
2019-01-09T18:35:35.176Z,99.90
2019-01-09T18:37:57.723Z,99.90
2019-01-09T18:40:46.176Z,99.90
2019-01-09T18:43:20.289Z,99.90
2019-01-09T18:45:59.975Z,99.90
2019-01-09T18:48:40.186Z,99.90
2019-01-09T18:51:27.099Z,99.90
2019-01-09T18:53:37.950Z,99.90
2019-01-09T18:55:42.499Z,99.90
2019-01-09T18:57:47.607Z,99.90
2019-01-09T18:59:53.165Z,99.90
2019-01-09T19:01:58.908Z,99.90
2019-01-09T19:04:03.683Z,99.90
2019-01-09T19:06:08.110Z,99.90
2019-01-09T19:08:12.919Z,99.90
2019-01-09T19:10:22.276Z,99.90
2019-01-09T19:12:26.779Z,99.90
2019-01-09T19:14:32.066Z,99.90
2019-01-09T19:16:36.620Z,99.90
2019-01-09T19:18:41.093Z,99.90
2019-01-09T19:20:45.532Z,99.90
2019-01-09T19:22:50.229Z,99.90
2019-01-09T19:24:54.634Z,99.90
2019-01-09T19:26:59.677Z,99.90
2019-01-09T19:29:04.987Z,99.90
2019-01-09T19:31:09.475Z,99.90
2019-01-09T19:33:17.629Z,99.90
2019-01-09T19:35:22.305Z,99.90
2019-01-09T19:37:28.382Z,99.90
2019-01-09T19:39:35.326Z,99.90
2019-01-09T19:41:40.264Z,99.90
2019-01-09T19:43:45.124Z,99.90
2019-01-09T19:45:49.575Z,99.90
2019-01-09T19:47:57.053Z,99.90
2019-01-09T19:50:02.552Z,99.90
2019-01-09T19:52:08.136Z,99.90
2019-01-09T19:54:18.840Z,99.90
2019-01-09T19:56:25.864Z,99.90
2019-01-09T19:58:31.871Z,99.90
2019-01-09T20:00:37.997Z,99.90
2019-01-09T20:02:47.372Z,99.90
2019-01-09T20:04:55.166Z,99.90
2019-01-09T20:07:02.422Z,99.90
2019-01-09T20:09:09.878Z,99.90
2019-01-09T20:11:26.192Z,99.90
2019-01-09T20:13:27.519Z,99.90
2019-01-09T20:15:33.111Z,99.90
2019-01-09T20:17:38.732Z,99.90
2019-01-09T20:19:45.965Z,99.90
2019-01-09T20:21:53.134Z,99.90
2019-01-09T20:24:00.460Z,99.90
2019-01-09T20:26:09.049Z,99.90
2019-01-09T20:28:14.634Z,99.90
2019-01-09T20:30:25.436Z,99.90
2019-01-09T20:32:31.006Z,99.90
2019-01-09T20:34:43.212Z,99.90
2019-01-09T20:36:51.981Z,99.90
2019-01-09T20:38:58.032Z,99.90
2019-01-09T20:41:04.307Z,99.90
2019-01-09T20:43:11.580Z,99.90
2019-01-09T20:45:22.825Z,99.90
2019-01-09T20:47:27.685Z,99.90
2019-01-09T20:49:32.225Z,99.90
2019-01-09T20:51:41.078Z,99.90
2019-01-09T20:53:45.833Z,99.90
2019-01-09T20:55:50.811Z,99.90
2019-01-09T20:57:55.444Z,99.90
2019-01-09T20:59:59.869Z,99.90
2019-01-09T21:02:04.657Z,99.90
2019-01-09T21:04:10.360Z,99.90
2019-01-09T21:06:15.176Z,99.90
2019-01-09T21:08:27.465Z,99.90
2019-01-09T21:10:32.114Z,99.90
2019-01-09T21:12:36.730Z,99.90
2019-01-09T21:14:41.658Z,99.90
2019-01-09T21:16:46.794Z,99.90
2019-01-09T21:18:58.956Z,99.90
2019-01-09T21:21:04.246Z,99.90
2019-01-09T21:23:08.752Z,99.90
2019-01-09T21:25:13.828Z,99.90
2019-01-09T21:27:18.936Z,99.90
2019-01-09T21:29:27.081Z,99.90
2019-01-09T21:31:33.463Z,99.90
2019-01-09T21:33:37.975Z,99.90
2019-01-09T21:35:44.589Z,99.90
2019-01-09T21:37:49.135Z,99.90
2019-01-09T21:39:53.815Z,99.90
2019-01-09T21:42:00.870Z,99.90
2019-01-09T21:44:05.939Z,99.90
2019-01-09T21:46:11.903Z,99.90
2019-01-09T21:48:18.477Z,99.90
2019-01-09T21:50:24.649Z,99.90
2019-01-09T21:52:29.194Z,99.90
2019-01-09T21:54:33.629Z,99.90
2019-01-09T21:56:38.272Z,99.90
2019-01-09T21:58:42.779Z,99.90
2019-01-09T22:00:48.915Z,99.90
2019-01-09T22:02:56.402Z,99.90
2019-01-09T22:05:03.686Z,99.90
2019-01-09T22:07:08.515Z,99.90
2019-01-09T22:09:16.373Z,99.90
2019-01-09T22:11:23.185Z,99.90
2019-01-09T22:13:27.714Z,99.90
2019-01-09T22:15:32.489Z,99.90
2019-01-09T22:17:37.919Z,99.90
2019-01-09T22:19:42.601Z,99.90
2019-01-09T22:21:48.037Z,99.90
2019-01-09T22:23:56.909Z,99.90
2019-01-09T22:26:03.532Z,99.90
2019-01-09T22:28:08.665Z,99.90
2019-01-09T22:30:20.073Z,99.90
2019-01-09T22:32:24.656Z,99.90
2019-01-09T22:34:29.108Z,99.90
2019-01-09T22:36:36.223Z,99.90
2019-01-09T22:38:43.114Z,99.90
2019-01-09T22:40:48.079Z,99.90
2019-01-09T22:42:53.824Z,99.90
2019-01-09T22:44:58.729Z,99.90
2019-01-09T22:47:04.785Z,99.90
2019-01-09T22:49:10.476Z,99.90
2019-01-09T22:51:20.544Z,99.90
2019-01-09T22:53:27.096Z,99.90
2019-01-09T22:55:32.776Z,99.90
2019-01-09T22:57:37.665Z,99.90
2019-01-09T22:59:42.150Z,99.90
2019-01-09T23:01:46.648Z,99.90
2019-01-09T23:03:53.925Z,99.90
2019-01-09T23:05:59.415Z,99.90
2019-01-09T23:08:05.173Z,99.90
2019-01-09T23:10:12.007Z,99.90
2019-01-09T23:12:21.408Z,99.90
2019-01-09T23:14:26.082Z,99.90
2019-01-09T23:16:32.185Z,99.90
2019-01-09T23:18:36.679Z,99.90
2019-01-09T23:20:41.229Z,99.90
2019-01-09T23:22:50.784Z,99.90
2019-01-09T23:24:55.250Z,99.90
2019-01-09T23:27:00.129Z,99.90
2019-01-09T23:29:05.437Z,99.90
2019-01-09T23:31:12.108Z,99.90
2019-01-09T23:33:16.775Z,99.90
2019-01-09T23:35:24.392Z,99.90
2019-01-09T23:37:30.600Z,99.90
2019-01-09T23:39:37.474Z,99.90
2019-01-09T23:41:42.806Z,99.90
2019-01-09T23:43:48.124Z,99.90
2019-01-09T23:45:53.245Z,99.90
2019-01-09T23:47:58.110Z,99.90
2019-01-09T23:50:04.487Z,99.90
2019-01-09T23:52:09.082Z,99.90
2019-01-09T23:54:13.871Z,99.90
2019-01-09T23:56:18.221Z,99.90
2019-01-09T23:58:22.792Z,99.90
